sensor_id;sensor_type;location;lat;lon;timestamp;P1;durP1;ratioP1;P2;durP2;ratioP2
73487;SDS011;61721;42.206;25.320;2023-09-08T00:00:11;9.50;;;3.45;;
73487;SDS011;61721;42.206;25.320;2023-09-08T00:02:40;8.73;;;3.22;;
73487;SDS011;61721;42.206;25.320;2023-09-08T00:05:08;7.82;;;3.25;;
73487;SDS011;61721;42.206;25.320;2023-09-08T00:07:36;7.30;;;3.50;;
73487;SDS011;61721;42.206;25.320;2023-09-08T00:10:05;9.85;;;3.63;;
73487;SDS011;61721;42.206;25.320;2023-09-08T00:12:49;6.75;;;3.35;;
73487;SDS011;61721;42.206;25.320;2023-09-08T00:15:21;6.93;;;3.25;;
73487;SDS011;61721;42.206;25.320;2023-09-08T00:17:56;8.50;;;3.22;;
73487;SDS011;61721;42.206;25.320;2023-09-08T00:20:23;9.43;;;3.67;;
73487;SDS011;61721;42.206;25.320;2023-09-08T00:22:51;9.98;;;3.60;;
73487;SDS011;61721;42.206;25.320;2023-09-08T00:25:21;6.20;;;3.25;;
73487;SDS011;61721;42.206;25.320;2023-09-08T00:27:49;6.70;;;3.22;;
73487;SDS011;61721;42.206;25.320;2023-09-08T00:30:16;7.00;;;3.20;;
73487;SDS011;61721;42.206;25.320;2023-09-08T00:32:43;10.20;;;3.38;;
73487;SDS011;61721;42.206;25.320;2023-09-08T00:35:11;7.22;;;3.42;;
73487;SDS011;61721;42.206;25.320;2023-09-08T00:37:40;6.43;;;3.35;;
73487;SDS011;61721;42.206;25.320;2023-09-08T00:40:07;7.28;;;3.63;;
73487;SDS011;61721;42.206;25.320;2023-09-08T00:42:36;9.27;;;3.10;;
73487;SDS011;61721;42.206;25.320;2023-09-08T00:45:04;5.10;;;3.05;;
73487;SDS011;61721;42.206;25.320;2023-09-08T00:47:32;14.30;;;4.07;;
73487;SDS011;61721;42.206;25.320;2023-09-08T00:50:00;8.82;;;3.38;;
73487;SDS011;61721;42.206;25.320;2023-09-08T00:52:29;6.90;;;3.20;;
73487;SDS011;61721;42.206;25.320;2023-09-08T00:54:58;6.78;;;3.45;;
73487;SDS011;61721;42.206;25.320;2023-09-08T00:57:26;7.07;;;3.78;;
73487;SDS011;61721;42.206;25.320;2023-09-08T01:08:34;5.72;;;3.05;;
73487;SDS011;61721;42.206;25.320;2023-09-08T01:11:03;8.18;;;3.40;;
73487;SDS011;61721;42.206;25.320;2023-09-08T01:13:30;8.40;;;3.28;;
73487;SDS011;61721;42.206;25.320;2023-09-08T01:16:04;6.03;;;3.42;;
73487;SDS011;61721;42.206;25.320;2023-09-08T01:18:32;6.25;;;3.40;;
73487;SDS011;61721;42.206;25.320;2023-09-08T01:26:46;8.45;;;3.22;;
73487;SDS011;61721;42.206;25.320;2023-09-08T01:29:22;8.35;;;3.50;;
73487;SDS011;61721;42.206;25.320;2023-09-08T01:31:50;7.68;;;3.30;;
73487;SDS011;61721;42.206;25.320;2023-09-08T01:34:19;7.90;;;3.85;;
73487;SDS011;61721;42.206;25.320;2023-09-08T01:36:46;9.60;;;3.60;;
73487;SDS011;61721;42.206;25.320;2023-09-08T01:39:14;7.22;;;3.60;;
73487;SDS011;61721;42.206;25.320;2023-09-08T01:41:42;6.93;;;3.47;;
73487;SDS011;61721;42.206;25.320;2023-09-08T01:44:11;7.53;;;3.85;;
73487;SDS011;61721;42.206;25.320;2023-09-08T01:46:41;6.53;;;3.47;;
73487;SDS011;61721;42.206;25.320;2023-09-08T01:49:08;6.32;;;3.45;;
73487;SDS011;61721;42.206;25.320;2023-09-08T01:51:36;8.32;;;3.75;;
73487;SDS011;61721;42.206;25.320;2023-09-08T01:54:04;9.48;;;3.50;;
73487;SDS011;61721;42.206;25.320;2023-09-08T01:56:32;8.82;;;3.50;;
73487;SDS011;61721;42.206;25.320;2023-09-08T01:59:01;7.40;;;3.35;;
73487;SDS011;61721;42.206;25.320;2023-09-08T02:01:44;7.97;;;3.22;;
73487;SDS011;61721;42.206;25.320;2023-09-08T02:04:12;7.70;;;3.45;;
73487;SDS011;61721;42.206;25.320;2023-09-08T02:12:17;8.25;;;3.50;;
73487;SDS011;61721;42.206;25.320;2023-09-08T02:14:57;6.65;;;3.40;;
73487;SDS011;61721;42.206;25.320;2023-09-08T02:17:28;6.57;;;3.38;;
73487;SDS011;61721;42.206;25.320;2023-09-08T02:22:57;7.25;;;3.10;;
73487;SDS011;61721;42.206;25.320;2023-09-08T02:25:31;5.85;;;3.30;;
73487;SDS011;61721;42.206;25.320;2023-09-08T02:28:04;5.32;;;3.03;;
73487;SDS011;61721;42.206;25.320;2023-09-08T02:30:48;8.98;;;3.40;;
73487;SDS011;61721;42.206;25.320;2023-09-08T02:33:16;8.60;;;4.28;;
73487;SDS011;61721;42.206;25.320;2023-09-08T02:35:44;6.90;;;3.25;;
73487;SDS011;61721;42.206;25.320;2023-09-08T02:38:11;7.10;;;3.40;;
73487;SDS011;61721;42.206;25.320;2023-09-08T02:40:39;6.03;;;3.42;;
73487;SDS011;61721;42.206;25.320;2023-09-08T02:43:06;7.93;;;3.17;;
73487;SDS011;61721;42.206;25.320;2023-09-08T02:45:33;8.32;;;3.83;;
73487;SDS011;61721;42.206;25.320;2023-09-08T02:48:00;7.30;;;3.53;;
73487;SDS011;61721;42.206;25.320;2023-09-08T02:50:29;7.72;;;3.55;;
73487;SDS011;61721;42.206;25.320;2023-09-08T02:52:56;10.10;;;3.65;;
73487;SDS011;61721;42.206;25.320;2023-09-08T02:55:24;6.05;;;3.25;;
73487;SDS011;61721;42.206;25.320;2023-09-08T02:57:52;6.45;;;3.10;;
73487;SDS011;61721;42.206;25.320;2023-09-08T03:00:20;6.95;;;3.15;;
73487;SDS011;61721;42.206;25.320;2023-09-08T03:02:48;7.40;;;3.30;;
73487;SDS011;61721;42.206;25.320;2023-09-08T03:05:15;7.07;;;3.45;;
73487;SDS011;61721;42.206;25.320;2023-09-08T03:07:43;9.82;;;3.30;;
73487;SDS011;61721;42.206;25.320;2023-09-08T03:10:14;7.45;;;3.40;;
73487;SDS011;61721;42.206;25.320;2023-09-08T03:12:41;7.38;;;3.28;;
73487;SDS011;61721;42.206;25.320;2023-09-08T03:15:09;7.40;;;3.40;;
73487;SDS011;61721;42.206;25.320;2023-09-08T03:17:37;6.47;;;3.30;;
73487;SDS011;61721;42.206;25.320;2023-09-08T03:20:04;11.68;;;3.47;;
73487;SDS011;61721;42.206;25.320;2023-09-08T03:25:02;11.10;;;3.50;;
73487;SDS011;61721;42.206;25.320;2023-09-08T03:27:29;7.55;;;3.05;;
73487;SDS011;61721;42.206;25.320;2023-09-08T03:29:56;6.22;;;3.05;;
73487;SDS011;61721;42.206;25.320;2023-09-08T03:32:24;5.85;;;3.10;;
73487;SDS011;61721;42.206;25.320;2023-09-08T03:34:51;6.43;;;2.97;;
73487;SDS011;61721;42.206;25.320;2023-09-08T03:37:18;7.78;;;3.50;;
73487;SDS011;61721;42.206;25.320;2023-09-08T03:39:46;6.78;;;3.33;;
73487;SDS011;61721;42.206;25.320;2023-09-08T03:42:15;5.88;;;3.05;;
73487;SDS011;61721;42.206;25.320;2023-09-08T03:44:42;6.80;;;3.50;;
73487;SDS011;61721;42.206;25.320;2023-09-08T03:47:09;9.05;;;3.53;;
73487;SDS011;61721;42.206;25.320;2023-09-08T03:49:37;16.10;;;3.65;;
73487;SDS011;61721;42.206;25.320;2023-09-08T03:52:04;12.25;;;3.47;;
73487;SDS011;61721;42.206;25.320;2023-09-08T03:54:32;7.53;;;3.10;;
73487;SDS011;61721;42.206;25.320;2023-09-08T03:57:00;7.05;;;3.35;;
73487;SDS011;61721;42.206;25.320;2023-09-08T03:59:30;7.30;;;3.30;;
73487;SDS011;61721;42.206;25.320;2023-09-08T04:01:57;11.65;;;3.15;;
73487;SDS011;61721;42.206;25.320;2023-09-08T04:04:26;10.98;;;4.18;;
73487;SDS011;61721;42.206;25.320;2023-09-08T04:06:53;9.43;;;3.13;;
73487;SDS011;61721;42.206;25.320;2023-09-08T04:09:21;10.45;;;3.40;;
73487;SDS011;61721;42.206;25.320;2023-09-08T04:11:48;7.88;;;3.20;;
73487;SDS011;61721;42.206;25.320;2023-09-08T04:14:16;6.85;;;3.25;;
73487;SDS011;61721;42.206;25.320;2023-09-08T04:22:47;8.45;;;3.42;;
73487;SDS011;61721;42.206;25.320;2023-09-08T04:28:09;7.43;;;3.03;;
73487;SDS011;61721;42.206;25.320;2023-09-08T04:30:37;8.20;;;3.47;;
73487;SDS011;61721;42.206;25.320;2023-09-08T04:33:04;8.75;;;3.20;;
73487;SDS011;61721;42.206;25.320;2023-09-08T04:35:37;9.15;;;3.30;;
73487;SDS011;61721;42.206;25.320;2023-09-08T04:38:10;8.20;;;3.05;;
73487;SDS011;61721;42.206;25.320;2023-09-08T04:40:39;12.55;;;2.92;;
73487;SDS011;61721;42.206;25.320;2023-09-08T04:43:08;5.97;;;2.92;;
73487;SDS011;61721;42.206;25.320;2023-09-08T04:45:37;12.75;;;3.42;;
73487;SDS011;61721;42.206;25.320;2023-09-08T04:48:07;10.23;;;3.30;;
73487;SDS011;61721;42.206;25.320;2023-09-08T04:53:13;10.18;;;3.33;;
73487;SDS011;61721;42.206;25.320;2023-09-08T04:55:43;9.13;;;3.42;;
73487;SDS011;61721;42.206;25.320;2023-09-08T04:58:16;13.95;;;3.53;;
73487;SDS011;61721;42.206;25.320;2023-09-08T05:00:46;18.98;;;4.55;;
73487;SDS011;61721;42.206;25.320;2023-09-08T05:03:13;26.73;;;3.90;;
73487;SDS011;61721;42.206;25.320;2023-09-08T05:05:52;16.13;;;3.80;;
73487;SDS011;61721;42.206;25.320;2023-09-08T05:08:20;11.18;;;4.45;;
73487;SDS011;61721;42.206;25.320;2023-09-08T05:10:53;8.45;;;4.05;;
73487;SDS011;61721;42.206;25.320;2023-09-08T05:13:21;10.13;;;5.07;;
73487;SDS011;61721;42.206;25.320;2023-09-08T05:15:59;10.07;;;4.47;;
73487;SDS011;61721;42.206;25.320;2023-09-08T05:18:36;10.05;;;4.85;;
73487;SDS011;61721;42.206;25.320;2023-09-08T05:21:05;9.80;;;4.88;;
73487;SDS011;61721;42.206;25.320;2023-09-08T05:23:32;9.45;;;4.68;;
73487;SDS011;61721;42.206;25.320;2023-09-08T05:26:00;10.23;;;4.30;;
73487;SDS011;61721;42.206;25.320;2023-09-08T05:28:30;9.20;;;4.45;;
73487;SDS011;61721;42.206;25.320;2023-09-08T05:30:57;10.93;;;4.60;;
73487;SDS011;61721;42.206;25.320;2023-09-08T05:33:24;9.40;;;5.18;;
73487;SDS011;61721;42.206;25.320;2023-09-08T05:35:51;10.18;;;4.95;;
73487;SDS011;61721;42.206;25.320;2023-09-08T05:38:22;10.02;;;4.55;;
73487;SDS011;61721;42.206;25.320;2023-09-08T05:40:51;14.73;;;4.20;;
73487;SDS011;61721;42.206;25.320;2023-09-08T05:45:49;9.10;;;4.30;;
73487;SDS011;61721;42.206;25.320;2023-09-08T05:48:17;12.10;;;4.25;;
73487;SDS011;61721;42.206;25.320;2023-09-08T05:50:44;9.70;;;4.55;;
73487;SDS011;61721;42.206;25.320;2023-09-08T05:53:11;9.55;;;4.53;;
73487;SDS011;61721;42.206;25.320;2023-09-08T05:55:41;9.93;;;4.50;;
73487;SDS011;61721;42.206;25.320;2023-09-08T05:58:10;12.48;;;4.85;;
73487;SDS011;61721;42.206;25.320;2023-09-08T06:00:38;11.15;;;5.90;;
73487;SDS011;61721;42.206;25.320;2023-09-08T06:05:38;8.15;;;4.63;;
73487;SDS011;61721;42.206;25.320;2023-09-08T06:08:05;11.85;;;6.82;;
73487;SDS011;61721;42.206;25.320;2023-09-08T06:10:34;8.88;;;4.13;;
73487;SDS011;61721;42.206;25.320;2023-09-08T06:13:10;8.18;;;3.75;;
73487;SDS011;61721;42.206;25.320;2023-09-08T06:15:37;8.90;;;3.88;;
73487;SDS011;61721;42.206;25.320;2023-09-08T06:18:05;7.13;;;4.10;;
73487;SDS011;61721;42.206;25.320;2023-09-08T06:20:32;7.75;;;3.50;;
73487;SDS011;61721;42.206;25.320;2023-09-08T06:22:59;9.70;;;4.00;;
73487;SDS011;61721;42.206;25.320;2023-09-08T06:25:26;12.07;;;4.20;;
73487;SDS011;61721;42.206;25.320;2023-09-08T06:27:54;10.52;;;3.85;;
73487;SDS011;61721;42.206;25.320;2023-09-08T06:30:23;8.32;;;3.20;;
73487;SDS011;61721;42.206;25.320;2023-09-08T06:32:50;7.63;;;3.38;;
73487;SDS011;61721;42.206;25.320;2023-09-08T06:35:17;7.20;;;3.05;;
73487;SDS011;61721;42.206;25.320;2023-09-08T06:37:45;5.80;;;2.75;;
73487;SDS011;61721;42.206;25.320;2023-09-08T06:40:12;5.60;;;2.97;;
73487;SDS011;61721;42.206;25.320;2023-09-08T06:42:39;9.98;;;2.92;;
73487;SDS011;61721;42.206;25.320;2023-09-08T06:45:07;7.38;;;2.83;;
73487;SDS011;61721;42.206;25.320;2023-09-08T06:47:37;11.45;;;2.78;;
73487;SDS011;61721;42.206;25.320;2023-09-08T06:50:05;8.02;;;2.80;;
73487;SDS011;61721;42.206;25.320;2023-09-08T06:52:33;6.90;;;2.63;;
73487;SDS011;61721;42.206;25.320;2023-09-08T06:55:00;5.18;;;2.95;;
73487;SDS011;61721;42.206;25.320;2023-09-08T06:57:28;4.75;;;2.50;;
73487;SDS011;61721;42.206;25.320;2023-09-08T06:59:55;4.38;;;2.33;;
73487;SDS011;61721;42.206;25.320;2023-09-08T07:02:22;5.57;;;2.58;;
73487;SDS011;61721;42.206;25.320;2023-09-08T07:04:51;5.35;;;2.60;;
73487;SDS011;61721;42.206;25.320;2023-09-08T07:07:18;5.57;;;2.55;;
73487;SDS011;61721;42.206;25.320;2023-09-08T07:09:45;5.43;;;2.60;;
73487;SDS011;61721;42.206;25.320;2023-09-08T07:12:13;7.30;;;3.05;;
73487;SDS011;61721;42.206;25.320;2023-09-08T07:14:40;7.15;;;2.55;;
73487;SDS011;61721;42.206;25.320;2023-09-08T07:17:07;5.28;;;2.50;;
73487;SDS011;61721;42.206;25.320;2023-09-08T07:19:34;4.75;;;2.22;;
73487;SDS011;61721;42.206;25.320;2023-09-08T07:22:09;7.88;;;2.78;;
73487;SDS011;61721;42.206;25.320;2023-09-08T07:24:36;5.00;;;2.42;;
73487;SDS011;61721;42.206;25.320;2023-09-08T07:27:03;4.75;;;2.60;;
73487;SDS011;61721;42.206;25.320;2023-09-08T07:29:31;7.28;;;2.30;;
73487;SDS011;61721;42.206;25.320;2023-09-08T07:31:58;6.18;;;2.00;;
73487;SDS011;61721;42.206;25.320;2023-09-08T07:34:25;6.55;;;2.45;;
73487;SDS011;61721;42.206;25.320;2023-09-08T07:36:52;5.55;;;2.20;;
73487;SDS011;61721;42.206;25.320;2023-09-08T07:39:21;5.82;;;2.40;;
73487;SDS011;61721;42.206;25.320;2023-09-08T07:41:48;6.22;;;2.22;;
73487;SDS011;61721;42.206;25.320;2023-09-08T07:44:16;7.85;;;2.55;;
73487;SDS011;61721;42.206;25.320;2023-09-08T07:46:44;5.07;;;2.40;;
73487;SDS011;61721;42.206;25.320;2023-09-08T07:49:14;4.75;;;2.15;;
73487;SDS011;61721;42.206;25.320;2023-09-08T07:51:41;4.20;;;2.20;;
73487;SDS011;61721;42.206;25.320;2023-09-08T07:54:08;6.18;;;2.30;;
73487;SDS011;61721;42.206;25.320;2023-09-08T07:56:37;4.85;;;2.13;;
73487;SDS011;61721;42.206;25.320;2023-09-08T07:59:06;5.03;;;2.10;;
73487;SDS011;61721;42.206;25.320;2023-09-08T08:01:34;5.72;;;2.10;;
73487;SDS011;61721;42.206;25.320;2023-09-08T08:04:01;9.98;;;2.40;;
73487;SDS011;61721;42.206;25.320;2023-09-08T08:06:32;9.82;;;2.67;;
73487;SDS011;61721;42.206;25.320;2023-09-08T08:08:59;7.15;;;2.58;;
73487;SDS011;61721;42.206;25.320;2023-09-08T08:11:26;6.90;;;2.70;;
73487;SDS011;61721;42.206;25.320;2023-09-08T08:13:55;6.13;;;2.40;;
73487;SDS011;61721;42.206;25.320;2023-09-08T08:16:23;12.80;;;2.60;;
73487;SDS011;61721;42.206;25.320;2023-09-08T08:18:50;11.45;;;2.53;;
73487;SDS011;61721;42.206;25.320;2023-09-08T08:21:19;4.88;;;2.17;;
73487;SDS011;61721;42.206;25.320;2023-09-08T08:24:07;9.20;;;2.55;;
73487;SDS011;61721;42.206;25.320;2023-09-08T08:26:35;4.68;;;2.40;;
73487;SDS011;61721;42.206;25.320;2023-09-08T08:29:04;6.70;;;2.53;;
73487;SDS011;61721;42.206;25.320;2023-09-08T08:31:31;5.38;;;1.90;;
73487;SDS011;61721;42.206;25.320;2023-09-08T08:33:59;8.63;;;2.40;;
73487;SDS011;61721;42.206;25.320;2023-09-08T08:36:26;7.13;;;2.38;;
73487;SDS011;61721;42.206;25.320;2023-09-08T08:38:53;4.47;;;2.03;;
73487;SDS011;61721;42.206;25.320;2023-09-08T08:41:20;4.32;;;2.22;;
73487;SDS011;61721;42.206;25.320;2023-09-08T08:43:47;7.97;;;2.08;;
73487;SDS011;61721;42.206;25.320;2023-09-08T08:46:19;5.28;;;2.17;;
73487;SDS011;61721;42.206;25.320;2023-09-08T08:48:48;5.35;;;2.10;;
73487;SDS011;61721;42.206;25.320;2023-09-08T08:51:19;5.75;;;2.13;;
73487;SDS011;61721;42.206;25.320;2023-09-08T08:53:50;4.78;;;2.08;;
73487;SDS011;61721;42.206;25.320;2023-09-08T08:56:17;7.43;;;2.25;;
73487;SDS011;61721;42.206;25.320;2023-09-08T08:58:44;9.07;;;2.42;;
73487;SDS011;61721;42.206;25.320;2023-09-08T09:01:12;6.53;;;2.20;;
73487;SDS011;61721;42.206;25.320;2023-09-08T09:03:44;5.50;;;2.15;;
73487;SDS011;61721;42.206;25.320;2023-09-08T09:06:15;5.22;;;2.13;;
73487;SDS011;61721;42.206;25.320;2023-09-08T09:08:43;3.88;;;2.03;;
73487;SDS011;61721;42.206;25.320;2023-09-08T09:11:12;8.43;;;2.20;;
73487;SDS011;61721;42.206;25.320;2023-09-08T09:13:40;5.50;;;2.10;;
73487;SDS011;61721;42.206;25.320;2023-09-08T09:16:07;6.00;;;1.92;;
73487;SDS011;61721;42.206;25.320;2023-09-08T09:18:41;7.10;;;2.40;;
73487;SDS011;61721;42.206;25.320;2023-09-08T09:21:22;7.75;;;2.35;;
73487;SDS011;61721;42.206;25.320;2023-09-08T09:23:49;5.38;;;2.35;;
73487;SDS011;61721;42.206;25.320;2023-09-08T09:26:23;6.28;;;2.58;;
73487;SDS011;61721;42.206;25.320;2023-09-08T09:28:51;7.80;;;2.60;;
73487;SDS011;61721;42.206;25.320;2023-09-08T09:31:22;3.92;;;2.20;;
73487;SDS011;61721;42.206;25.320;2023-09-08T09:34:02;4.93;;;2.10;;
73487;SDS011;61721;42.206;25.320;2023-09-08T09:36:31;4.45;;;1.83;;
73487;SDS011;61721;42.206;25.320;2023-09-08T09:38:58;5.22;;;2.15;;
73487;SDS011;61721;42.206;25.320;2023-09-08T09:41:27;6.00;;;1.95;;
73487;SDS011;61721;42.206;25.320;2023-09-08T09:43:56;5.80;;;1.95;;
73487;SDS011;61721;42.206;25.320;2023-09-08T09:46:24;9.15;;;2.15;;
73487;SDS011;61721;42.206;25.320;2023-09-08T09:48:55;4.78;;;2.33;;
73487;SDS011;61721;42.206;25.320;2023-09-08T09:51:24;6.55;;;2.03;;
73487;SDS011;61721;42.206;25.320;2023-09-08T09:53:51;5.28;;;2.10;;
73487;SDS011;61721;42.206;25.320;2023-09-08T09:56:22;6.15;;;2.13;;
73487;SDS011;61721;42.206;25.320;2023-09-08T09:58:50;4.88;;;2.25;;
73487;SDS011;61721;42.206;25.320;2023-09-08T10:01:19;5.10;;;2.20;;
73487;SDS011;61721;42.206;25.320;2023-09-08T10:03:48;7.43;;;2.40;;
73487;SDS011;61721;42.206;25.320;2023-09-08T10:06:16;6.22;;;2.10;;
73487;SDS011;61721;42.206;25.320;2023-09-08T10:08:47;7.68;;;2.50;;
73487;SDS011;61721;42.206;25.320;2023-09-08T10:11:18;6.35;;;2.92;;
73487;SDS011;61721;42.206;25.320;2023-09-08T10:13:49;4.72;;;2.15;;
73487;SDS011;61721;42.206;25.320;2023-09-08T10:16:20;5.18;;;2.20;;
73487;SDS011;61721;42.206;25.320;2023-09-08T10:18:48;6.10;;;2.28;;
73487;SDS011;61721;42.206;25.320;2023-09-08T10:21:18;7.32;;;2.38;;
73487;SDS011;61721;42.206;25.320;2023-09-08T10:23:51;5.22;;;2.30;;
73487;SDS011;61721;42.206;25.320;2023-09-08T10:26:24;4.65;;;2.55;;
73487;SDS011;61721;42.206;25.320;2023-09-08T10:28:54;5.00;;;2.42;;
73487;SDS011;61721;42.206;25.320;2023-09-08T10:31:23;5.68;;;2.15;;
73487;SDS011;61721;42.206;25.320;2023-09-08T10:33:52;5.30;;;2.15;;
73487;SDS011;61721;42.206;25.320;2023-09-08T10:36:28;9.15;;;2.20;;
73487;SDS011;61721;42.206;25.320;2023-09-08T10:45:01;7.38;;;2.22;;
73487;SDS011;61721;42.206;25.320;2023-09-08T10:47:31;4.57;;;2.42;;
73487;SDS011;61721;42.206;25.320;2023-09-08T10:50:02;6.07;;;2.58;;
73487;SDS011;61721;42.206;25.320;2023-09-08T10:52:30;4.28;;;2.22;;
73487;SDS011;61721;42.206;25.320;2023-09-08T10:55:00;6.03;;;1.90;;
73487;SDS011;61721;42.206;25.320;2023-09-08T10:57:29;6.40;;;2.28;;
73487;SDS011;61721;42.206;25.320;2023-09-08T11:00:01;4.50;;;2.15;;
73487;SDS011;61721;42.206;25.320;2023-09-08T11:02:37;6.53;;;2.08;;
73487;SDS011;61721;42.206;25.320;2023-09-08T11:05:07;9.02;;;3.00;;
73487;SDS011;61721;42.206;25.320;2023-09-08T11:07:35;5.70;;;2.30;;
73487;SDS011;61721;42.206;25.320;2023-09-08T11:10:03;7.40;;;2.40;;
73487;SDS011;61721;42.206;25.320;2023-09-08T11:12:33;7.80;;;2.08;;
73487;SDS011;61721;42.206;25.320;2023-09-08T11:15:02;5.53;;;2.45;;
73487;SDS011;61721;42.206;25.320;2023-09-08T11:17:30;5.55;;;2.40;;
73487;SDS011;61721;42.206;25.320;2023-09-08T11:19:59;6.35;;;2.47;;
73487;SDS011;61721;42.206;25.320;2023-09-08T11:22:27;6.03;;;2.33;;
73487;SDS011;61721;42.206;25.320;2023-09-08T11:24:55;5.05;;;2.50;;
73487;SDS011;61721;42.206;25.320;2023-09-08T11:27:23;4.60;;;2.45;;
73487;SDS011;61721;42.206;25.320;2023-09-08T11:29:52;4.85;;;2.13;;
73487;SDS011;61721;42.206;25.320;2023-09-08T11:32:20;6.95;;;2.15;;
73487;SDS011;61721;42.206;25.320;2023-09-08T11:34:47;5.82;;;2.63;;
73487;SDS011;61721;42.206;25.320;2023-09-08T11:37:16;5.18;;;2.53;;
73487;SDS011;61721;42.206;25.320;2023-09-08T11:39:45;4.80;;;2.42;;
73487;SDS011;61721;42.206;25.320;2023-09-08T11:42:13;5.72;;;2.55;;
73487;SDS011;61721;42.206;25.320;2023-09-08T11:44:41;6.40;;;2.63;;
73487;SDS011;61721;42.206;25.320;2023-09-08T11:47:10;4.95;;;2.33;;
73487;SDS011;61721;42.206;25.320;2023-09-08T11:49:38;4.35;;;2.33;;
73487;SDS011;61721;42.206;25.320;2023-09-08T11:52:06;7.93;;;2.63;;
73487;SDS011;61721;42.206;25.320;2023-09-08T11:54:34;6.47;;;2.50;;
73487;SDS011;61721;42.206;25.320;2023-09-08T11:57:03;4.63;;;2.70;;
73487;SDS011;61721;42.206;25.320;2023-09-08T11:59:33;5.07;;;2.40;;
73487;SDS011;61721;42.206;25.320;2023-09-08T12:02:01;7.85;;;2.75;;
73487;SDS011;61721;42.206;25.320;2023-09-08T12:04:30;6.20;;;2.40;;
73487;SDS011;61721;42.206;25.320;2023-09-08T12:07:01;6.22;;;2.58;;
73487;SDS011;61721;42.206;25.320;2023-09-08T12:09:29;7.00;;;2.80;;
73487;SDS011;61721;42.206;25.320;2023-09-08T12:11:57;5.88;;;2.58;;
73487;SDS011;61721;42.206;25.320;2023-09-08T12:14:29;5.45;;;2.90;;
73487;SDS011;61721;42.206;25.320;2023-09-08T12:17:04;4.05;;;2.53;;
73487;SDS011;61721;42.206;25.320;2023-09-08T12:19:34;4.45;;;2.55;;
73487;SDS011;61721;42.206;25.320;2023-09-08T12:22:03;7.00;;;2.60;;
73487;SDS011;61721;42.206;25.320;2023-09-08T12:24:48;8.38;;;2.60;;
73487;SDS011;61721;42.206;25.320;2023-09-08T12:27:17;5.10;;;2.50;;
73487;SDS011;61721;42.206;25.320;2023-09-08T12:29:52;7.53;;;2.78;;
73487;SDS011;61721;42.206;25.320;2023-09-08T12:32:22;4.70;;;2.63;;
73487;SDS011;61721;42.206;25.320;2023-09-08T12:34:52;5.55;;;2.78;;
73487;SDS011;61721;42.206;25.320;2023-09-08T12:39:47;6.65;;;2.75;;
73487;SDS011;61721;42.206;25.320;2023-09-08T12:42:15;7.88;;;2.80;;
73487;SDS011;61721;42.206;25.320;2023-09-08T12:44:42;6.00;;;2.80;;
73487;SDS011;61721;42.206;25.320;2023-09-08T12:47:10;4.28;;;2.30;;
73487;SDS011;61721;42.206;25.320;2023-09-08T12:49:39;6.70;;;3.03;;
73487;SDS011;61721;42.206;25.320;2023-09-08T12:52:08;6.03;;;2.47;;
73487;SDS011;61721;42.206;25.320;2023-09-08T12:54:35;5.13;;;2.72;;
73487;SDS011;61721;42.206;25.320;2023-09-08T12:57:03;5.53;;;2.65;;
73487;SDS011;61721;42.206;25.320;2023-09-08T12:59:30;6.97;;;2.80;;
73487;SDS011;61721;42.206;25.320;2023-09-08T13:01:58;5.68;;;2.80;;
73487;SDS011;61721;42.206;25.320;2023-09-08T13:04:25;6.18;;;2.40;;
73487;SDS011;61721;42.206;25.320;2023-09-08T13:06:53;6.13;;;2.50;;
73487;SDS011;61721;42.206;25.320;2023-09-08T13:09:25;7.00;;;2.70;;
73487;SDS011;61721;42.206;25.320;2023-09-08T13:11:52;4.20;;;2.60;;
73487;SDS011;61721;42.206;25.320;2023-09-08T13:14:20;6.43;;;2.60;;
73487;SDS011;61721;42.206;25.320;2023-09-08T13:16:47;6.13;;;2.60;;
73487;SDS011;61721;42.206;25.320;2023-09-08T13:19:14;5.47;;;2.67;;
73487;SDS011;61721;42.206;25.320;2023-09-08T13:21:42;9.07;;;2.63;;
73487;SDS011;61721;42.206;25.320;2023-09-08T13:24:09;8.10;;;2.70;;
73487;SDS011;61721;42.206;25.320;2023-09-08T13:26:39;6.70;;;2.50;;
73487;SDS011;61721;42.206;25.320;2023-09-08T13:29:06;6.35;;;2.78;;
73487;SDS011;61721;42.206;25.320;2023-09-08T13:31:33;7.03;;;2.40;;
73487;SDS011;61721;42.206;25.320;2023-09-08T13:34:00;5.72;;;2.35;;
73487;SDS011;61721;42.206;25.320;2023-09-08T13:36:28;6.82;;;2.60;;
73487;SDS011;61721;42.206;25.320;2023-09-08T13:38:55;5.90;;;2.25;;
73487;SDS011;61721;42.206;25.320;2023-09-08T13:41:23;5.88;;;2.60;;
73487;SDS011;61721;42.206;25.320;2023-09-08T13:43:52;9.02;;;2.72;;
73487;SDS011;61721;42.206;25.320;2023-09-08T13:46:19;7.07;;;2.25;;
73487;SDS011;61721;42.206;25.320;2023-09-08T13:48:47;4.82;;;2.40;;
73487;SDS011;61721;42.206;25.320;2023-09-08T13:51:14;5.43;;;2.67;;
73487;SDS011;61721;42.206;25.320;2023-09-08T13:53:43;6.25;;;2.60;;
73487;SDS011;61721;42.206;25.320;2023-09-08T13:56:10;4.97;;;2.20;;
73487;SDS011;61721;42.206;25.320;2023-09-08T13:58:37;8.50;;;2.33;;
73487;SDS011;61721;42.206;25.320;2023-09-08T14:01:06;7.75;;;2.58;;
73487;SDS011;61721;42.206;25.320;2023-09-08T14:03:34;8.73;;;2.63;;
73487;SDS011;61721;42.206;25.320;2023-09-08T14:06:01;6.35;;;2.30;;
73487;SDS011;61721;42.206;25.320;2023-09-08T14:08:28;6.38;;;2.40;;
73487;SDS011;61721;42.206;25.320;2023-09-08T14:10:58;5.72;;;2.28;;
73487;SDS011;61721;42.206;25.320;2023-09-08T14:13:25;8.77;;;2.38;;
73487;SDS011;61721;42.206;25.320;2023-09-08T14:15:52;5.68;;;2.22;;
73487;SDS011;61721;42.206;25.320;2023-09-08T14:18:22;5.25;;;2.30;;
73487;SDS011;61721;42.206;25.320;2023-09-08T14:20:49;10.90;;;2.40;;
73487;SDS011;61721;42.206;25.320;2023-09-08T14:23:16;8.73;;;2.28;;
73487;SDS011;61721;42.206;25.320;2023-09-08T14:25:43;6.00;;;2.60;;
73487;SDS011;61721;42.206;25.320;2023-09-08T14:28:11;8.98;;;2.53;;
73487;SDS011;61721;42.206;25.320;2023-09-08T14:30:38;5.95;;;2.55;;
73487;SDS011;61721;42.206;25.320;2023-09-08T14:33:06;5.15;;;2.42;;
73487;SDS011;61721;42.206;25.320;2023-09-08T14:35:35;6.40;;;2.47;;
73487;SDS011;61721;42.206;25.320;2023-09-08T14:38:02;6.90;;;2.67;;
73487;SDS011;61721;42.206;25.320;2023-09-08T14:40:30;5.28;;;2.70;;
73487;SDS011;61721;42.206;25.320;2023-09-08T14:42:57;5.47;;;2.60;;
73487;SDS011;61721;42.206;25.320;2023-09-08T14:45:24;6.25;;;2.20;;
73487;SDS011;61721;42.206;25.320;2023-09-08T14:47:52;5.22;;;2.45;;
73487;SDS011;61721;42.206;25.320;2023-09-08T14:50:20;5.97;;;2.50;;
73487;SDS011;61721;42.206;25.320;2023-09-08T14:52:48;5.18;;;2.38;;
73487;SDS011;61721;42.206;25.320;2023-09-08T14:55:16;6.28;;;2.60;;
73487;SDS011;61721;42.206;25.320;2023-09-08T14:57:43;6.13;;;2.70;;
73487;SDS011;61721;42.206;25.320;2023-09-08T15:00:11;7.10;;;2.38;;
73487;SDS011;61721;42.206;25.320;2023-09-08T15:02:39;7.10;;;2.60;;
73487;SDS011;61721;42.206;25.320;2023-09-08T15:05:07;6.70;;;2.20;;
73487;SDS011;61721;42.206;25.320;2023-09-08T15:07:34;6.60;;;2.40;;
73487;SDS011;61721;42.206;25.320;2023-09-08T15:10:04;6.00;;;2.22;;
73487;SDS011;61721;42.206;25.320;2023-09-08T15:12:32;4.82;;;2.10;;
73487;SDS011;61721;42.206;25.320;2023-09-08T15:14:59;8.32;;;2.55;;
73487;SDS011;61721;42.206;25.320;2023-09-08T15:17:27;5.97;;;2.10;;
73487;SDS011;61721;42.206;25.320;2023-09-08T15:19:54;6.13;;;2.55;;
73487;SDS011;61721;42.206;25.320;2023-09-08T15:22:21;3.95;;;2.15;;
73487;SDS011;61721;42.206;25.320;2023-09-08T15:24:49;5.25;;;2.30;;
73487;SDS011;61721;42.206;25.320;2023-09-08T15:27:18;4.80;;;2.30;;
73487;SDS011;61721;42.206;25.320;2023-09-08T15:29:45;5.38;;;2.10;;
73487;SDS011;61721;42.206;25.320;2023-09-08T15:32:12;8.65;;;2.20;;